sensor_id;sensor_type;location;lat;lon;timestamp;temperature;humidity
20568;DHT22;10442;49.932;11.592;2024-03-02T00:00:21;8.50;75.20
20568;DHT22;10442;49.932;11.592;2024-03-02T00:02:52;8.50;75.10
20568;DHT22;10442;49.932;11.592;2024-03-02T00:05:22;8.40;75.10
20568;DHT22;10442;49.932;11.592;2024-03-02T00:07:55;8.40;75.20
20568;DHT22;10442;49.932;11.592;2024-03-02T00:10:27;8.40;75.40
20568;DHT22;10442;49.932;11.592;2024-03-02T00:13:02;8.30;75.70
20568;DHT22;10442;49.932;11.592;2024-03-02T00:17:58;8.30;76.10
20568;DHT22;10442;49.932;11.592;2024-03-02T00:20:26;8.30;76.00
20568;DHT22;10442;49.932;11.592;2024-03-02T00:23:05;8.40;76.10
20568;DHT22;10442;49.932;11.592;2024-03-02T00:26:05;8.40;76.00
20568;DHT22;10442;49.932;11.592;2024-03-02T00:28:36;8.40;75.80
20568;DHT22;10442;49.932;11.592;2024-03-02T00:31:12;8.40;75.70
20568;DHT22;10442;49.932;11.592;2024-03-02T00:33:44;8.30;75.60
20568;DHT22;10442;49.932;11.592;2024-03-02T00:36:14;8.40;75.70
20568;DHT22;10442;49.932;11.592;2024-03-02T00:38:50;8.30;75.80
20568;DHT22;10442;49.932;11.592;2024-03-02T00:41:27;8.30;75.90
20568;DHT22;10442;49.932;11.592;2024-03-02T00:46:33;8.40;76.10
20568;DHT22;10442;49.932;11.592;2024-03-02T00:49:03;8.40;76.00
20568;DHT22;10442;49.932;11.592;2024-03-02T00:51:32;8.40;76.10
20568;DHT22;10442;49.932;11.592;2024-03-02T00:54:05;8.40;76.00
20568;DHT22;10442;49.932;11.592;2024-03-02T00:56:34;8.50;76.10
20568;DHT22;10442;49.932;11.592;2024-03-02T00:59:03;8.50;76.10
20568;DHT22;10442;49.932;11.592;2024-03-02T01:01:30;8.50;76.10
20568;DHT22;10442;49.932;11.592;2024-03-02T01:03:58;8.50;76.10
20568;DHT22;10442;49.932;11.592;2024-03-02T01:06:26;8.50;76.10
20568;DHT22;10442;49.932;11.592;2024-03-02T01:08:53;8.50;76.20
20568;DHT22;10442;49.932;11.592;2024-03-02T01:11:21;8.60;76.20
20568;DHT22;10442;49.932;11.592;2024-03-02T01:13:51;8.60;76.20
20568;DHT22;10442;49.932;11.592;2024-03-02T01:16:20;8.60;76.20
20568;DHT22;10442;49.932;11.592;2024-03-02T01:18:48;8.60;76.20
20568;DHT22;10442;49.932;11.592;2024-03-02T01:21:16;8.60;76.20
20568;DHT22;10442;49.932;11.592;2024-03-02T01:23:44;8.60;76.30
20568;DHT22;10442;49.932;11.592;2024-03-02T01:26:11;8.60;76.50
20568;DHT22;10442;49.932;11.592;2024-03-02T01:28:39;8.60;76.70
20568;DHT22;10442;49.932;11.592;2024-03-02T01:31:07;8.70;76.80
20568;DHT22;10442;49.932;11.592;2024-03-02T01:33:34;8.70;76.90
20568;DHT22;10442;49.932;11.592;2024-03-02T01:36:02;8.80;76.80
20568;DHT22;10442;49.932;11.592;2024-03-02T01:38:29;8.80;76.80
20568;DHT22;10442;49.932;11.592;2024-03-02T01:40:56;8.80;76.70
20568;DHT22;10442;49.932;11.592;2024-03-02T01:43:26;8.80;76.70
20568;DHT22;10442;49.932;11.592;2024-03-02T01:45:55;8.90;76.80
20568;DHT22;10442;49.932;11.592;2024-03-02T01:48:25;8.90;76.80
20568;DHT22;10442;49.932;11.592;2024-03-02T01:50:53;8.90;76.80
20568;DHT22;10442;49.932;11.592;2024-03-02T01:53:20;8.90;76.80
20568;DHT22;10442;49.932;11.592;2024-03-02T01:55:48;8.90;76.80
20568;DHT22;10442;49.932;11.592;2024-03-02T01:58:16;8.90;77.60
20568;DHT22;10442;49.932;11.592;2024-03-02T02:00:43;8.90;76.90
20568;DHT22;10442;49.932;11.592;2024-03-02T02:03:12;8.90;76.90
20568;DHT22;10442;49.932;11.592;2024-03-02T02:05:42;8.90;76.90
20568;DHT22;10442;49.932;11.592;2024-03-02T02:08:09;8.90;77.00
20568;DHT22;10442;49.932;11.592;2024-03-02T02:10:37;8.90;77.10
20568;DHT22;10442;49.932;11.592;2024-03-02T02:13:05;8.90;77.10
20568;DHT22;10442;49.932;11.592;2024-03-02T02:15:35;8.90;77.20
20568;DHT22;10442;49.932;11.592;2024-03-02T02:18:05;8.90;77.10
20568;DHT22;10442;49.932;11.592;2024-03-02T02:20:33;8.90;77.20
20568;DHT22;10442;49.932;11.592;2024-03-02T02:23:02;8.90;77.20
20568;DHT22;10442;49.932;11.592;2024-03-02T02:25:30;9.00;77.20
20568;DHT22;10442;49.932;11.592;2024-03-02T02:27:58;9.00;77.20
20568;DHT22;10442;49.932;11.592;2024-03-02T02:30:28;9.00;77.10
20568;DHT22;10442;49.932;11.592;2024-03-02T02:32:57;9.00;77.10
20568;DHT22;10442;49.932;11.592;2024-03-02T02:35:25;9.00;77.10
20568;DHT22;10442;49.932;11.592;2024-03-02T02:37:54;9.00;77.10
20568;DHT22;10442;49.932;11.592;2024-03-02T02:40:22;9.00;77.00
20568;DHT22;10442;49.932;11.592;2024-03-02T02:42:50;9.00;77.10
20568;DHT22;10442;49.932;11.592;2024-03-02T02:45:19;9.10;77.20
20568;DHT22;10442;49.932;11.592;2024-03-02T02:47:47;9.10;77.20
20568;DHT22;10442;49.932;11.592;2024-03-02T02:50:16;9.10;77.30
20568;DHT22;10442;49.932;11.592;2024-03-02T02:52:44;9.10;77.20
20568;DHT22;10442;49.932;11.592;2024-03-02T02:55:13;9.10;77.30
20568;DHT22;10442;49.932;11.592;2024-03-02T02:57:42;9.10;77.20
20568;DHT22;10442;49.932;11.592;2024-03-02T03:00:12;9.10;77.30
20568;DHT22;10442;49.932;11.592;2024-03-02T03:02:47;9.10;77.30
20568;DHT22;10442;49.932;11.592;2024-03-02T03:05:17;9.10;77.40
20568;DHT22;10442;49.932;11.592;2024-03-02T03:07:46;9.20;77.40
20568;DHT22;10442;49.932;11.592;2024-03-02T03:10:16;9.20;77.50
20568;DHT22;10442;49.932;11.592;2024-03-02T03:12:43;9.20;77.50
20568;DHT22;10442;49.932;11.592;2024-03-02T03:15:12;9.20;77.50
20568;DHT22;10442;49.932;11.592;2024-03-02T03:17:40;9.20;77.60
20568;DHT22;10442;49.932;11.592;2024-03-02T03:20:08;9.20;77.60
20568;DHT22;10442;49.932;11.592;2024-03-02T03:22:42;9.20;77.50
20568;DHT22;10442;49.932;11.592;2024-03-02T03:25:10;9.20;77.50
20568;DHT22;10442;49.932;11.592;2024-03-02T03:27:37;9.20;77.50
20568;DHT22;10442;49.932;11.592;2024-03-02T03:30:05;9.20;77.60
20568;DHT22;10442;49.932;11.592;2024-03-02T03:32:34;9.20;77.60
20568;DHT22;10442;49.932;11.592;2024-03-02T03:35:01;9.20;77.60
20568;DHT22;10442;49.932;11.592;2024-03-02T03:37:30;9.20;77.60
20568;DHT22;10442;49.932;11.592;2024-03-02T03:40:03;9.20;77.70
20568;DHT22;10442;49.932;11.592;2024-03-02T03:42:37;9.20;77.80
20568;DHT22;10442;49.932;11.592;2024-03-02T03:45:07;9.20;77.90
20568;DHT22;10442;49.932;11.592;2024-03-02T03:47:35;9.20;77.90
20568;DHT22;10442;49.932;11.592;2024-03-02T03:50:04;9.20;77.90
20568;DHT22;10442;49.932;11.592;2024-03-02T03:52:34;9.20;78.00
20568;DHT22;10442;49.932;11.592;2024-03-02T03:55:01;9.20;78.00
20568;DHT22;10442;49.932;11.592;2024-03-02T03:57:29;9.20;78.00
20568;DHT22;10442;49.932;11.592;2024-03-02T03:59:56;9.20;78.00
20568;DHT22;10442;49.932;11.592;2024-03-02T04:02:24;9.20;78.00
20568;DHT22;10442;49.932;11.592;2024-03-02T04:04:52;9.20;78.10
20568;DHT22;10442;49.932;11.592;2024-03-02T04:07:20;9.20;78.10
20568;DHT22;10442;49.932;11.592;2024-03-02T04:09:47;9.20;78.10
20568;DHT22;10442;49.932;11.592;2024-03-02T04:12:16;9.20;78.10
20568;DHT22;10442;49.932;11.592;2024-03-02T04:14:45;9.30;78.10
20568;DHT22;10442;49.932;11.592;2024-03-02T04:17:13;9.30;78.10
20568;DHT22;10442;49.932;11.592;2024-03-02T04:19:40;9.30;78.10
20568;DHT22;10442;49.932;11.592;2024-03-02T04:22:07;9.30;78.10
20568;DHT22;10442;49.932;11.592;2024-03-02T04:24:47;9.30;78.10
20568;DHT22;10442;49.932;11.592;2024-03-02T04:27:14;9.30;78.10
20568;DHT22;10442;49.932;11.592;2024-03-02T04:29:42;9.30;78.10
20568;DHT22;10442;49.932;11.592;2024-03-02T04:32:09;9.30;78.10
20568;DHT22;10442;49.932;11.592;2024-03-02T04:34:36;9.30;78.00
20568;DHT22;10442;49.932;11.592;2024-03-02T04:37:04;9.30;78.10
20568;DHT22;10442;49.932;11.592;2024-03-02T04:39:32;9.30;78.00
20568;DHT22;10442;49.932;11.592;2024-03-02T04:42:02;9.30;78.00
20568;DHT22;10442;49.932;11.592;2024-03-02T04:44:30;9.30;78.00
20568;DHT22;10442;49.932;11.592;2024-03-02T04:46:57;9.30;77.90
20568;DHT22;10442;49.932;11.592;2024-03-02T04:49:26;9.30;77.90
20568;DHT22;10442;49.932;11.592;2024-03-02T04:51:53;9.30;78.00
20568;DHT22;10442;49.932;11.592;2024-03-02T04:54:21;9.30;78.10
20568;DHT22;10442;49.932;11.592;2024-03-02T04:56:48;9.30;78.20
20568;DHT22;10442;49.932;11.592;2024-03-02T04:59:19;9.30;78.20
20568;DHT22;10442;49.932;11.592;2024-03-02T05:01:47;9.30;78.30
20568;DHT22;10442;49.932;11.592;2024-03-02T05:04:15;9.30;78.40
20568;DHT22;10442;49.932;11.592;2024-03-02T05:06:42;9.30;78.40
20568;DHT22;10442;49.932;11.592;2024-03-02T05:09:09;9.30;78.40
20568;DHT22;10442;49.932;11.592;2024-03-02T05:11:37;9.30;78.40
20568;DHT22;10442;49.932;11.592;2024-03-02T05:14:05;9.40;78.40
20568;DHT22;10442;49.932;11.592;2024-03-02T05:16:36;9.40;78.40
20568;DHT22;10442;49.932;11.592;2024-03-02T05:19:05;9.40;78.50
20568;DHT22;10442;49.932;11.592;2024-03-02T05:21:34;9.40;78.40
20568;DHT22;10442;49.932;11.592;2024-03-02T05:24:02;9.40;78.40
20568;DHT22;10442;49.932;11.592;2024-03-02T05:26:31;9.40;78.40
20568;DHT22;10442;49.932;11.592;2024-03-02T05:28:58;9.30;78.40
20568;DHT22;10442;49.932;11.592;2024-03-02T05:31:26;9.30;78.40
20568;DHT22;10442;49.932;11.592;2024-03-02T05:33:55;9.40;78.40
20568;DHT22;10442;49.932;11.592;2024-03-02T05:36:24;9.30;78.40
20568;DHT22;10442;49.932;11.592;2024-03-02T05:38:52;9.30;78.40
20568;DHT22;10442;49.932;11.592;2024-03-02T05:41:20;9.30;79.20
20568;DHT22;10442;49.932;11.592;2024-03-02T05:43:48;9.30;78.60
20568;DHT22;10442;49.932;11.592;2024-03-02T05:46:16;9.30;78.60
20568;DHT22;10442;49.932;11.592;2024-03-02T05:48:43;9.30;78.60
20568;DHT22;10442;49.932;11.592;2024-03-02T05:51:11;9.20;78.50
20568;DHT22;10442;49.932;11.592;2024-03-02T05:53:38;9.20;78.50
20568;DHT22;10442;49.932;11.592;2024-03-02T05:56:06;9.20;78.60
20568;DHT22;10442;49.932;11.592;2024-03-02T05:58:35;9.20;78.70
20568;DHT22;10442;49.932;11.592;2024-03-02T06:01:21;9.20;78.70
20568;DHT22;10442;49.932;11.592;2024-03-02T06:03:56;9.20;78.80
20568;DHT22;10442;49.932;11.592;2024-03-02T06:06:23;9.10;78.80
20568;DHT22;10442;49.932;11.592;2024-03-02T06:08:52;9.10;78.80
20568;DHT22;10442;49.932;11.592;2024-03-02T06:11:20;9.10;78.90
20568;DHT22;10442;49.932;11.592;2024-03-02T06:13:49;9.20;79.00
20568;DHT22;10442;49.932;11.592;2024-03-02T06:16:16;9.20;79.10
20568;DHT22;10442;49.932;11.592;2024-03-02T06:18:43;9.20;79.10
20568;DHT22;10442;49.932;11.592;2024-03-02T06:21:13;9.20;79.20
20568;DHT22;10442;49.932;11.592;2024-03-02T06:23:40;9.20;79.20
20568;DHT22;10442;49.932;11.592;2024-03-02T06:26:08;9.20;79.10
20568;DHT22;10442;49.932;11.592;2024-03-02T06:28:35;9.30;79.20
20568;DHT22;10442;49.932;11.592;2024-03-02T06:31:03;9.30;79.10
20568;DHT22;10442;49.932;11.592;2024-03-02T06:33:31;9.30;79.10
20568;DHT22;10442;49.932;11.592;2024-03-02T06:35:59;9.30;79.30
20568;DHT22;10442;49.932;11.592;2024-03-02T06:38:26;9.40;79.20
20568;DHT22;10442;49.932;11.592;2024-03-02T06:40:54;9.40;79.20
20568;DHT22;10442;49.932;11.592;2024-03-02T06:43:24;9.50;79.40
20568;DHT22;10442;49.932;11.592;2024-03-02T06:45:52;9.50;79.40
20568;DHT22;10442;49.932;11.592;2024-03-02T06:48:20;9.50;79.40
20568;DHT22;10442;49.932;11.592;2024-03-02T06:50:49;9.60;79.50
20568;DHT22;10442;49.932;11.592;2024-03-02T06:53:17;9.70;79.50
20568;DHT22;10442;49.932;11.592;2024-03-02T06:55:45;9.70;79.40
20568;DHT22;10442;49.932;11.592;2024-03-02T06:58:14;9.80;79.40
20568;DHT22;10442;49.932;11.592;2024-03-02T07:00:44;9.90;79.40
20568;DHT22;10442;49.932;11.592;2024-03-02T07:03:12;9.90;79.20
20568;DHT22;10442;49.932;11.592;2024-03-02T07:05:40;9.90;78.90
20568;DHT22;10442;49.932;11.592;2024-03-02T07:08:08;10.00;78.80
20568;DHT22;10442;49.932;11.592;2024-03-02T07:10:36;10.00;78.50
20568;DHT22;10442;49.932;11.592;2024-03-02T07:13:03;10.10;78.60
20568;DHT22;10442;49.932;11.592;2024-03-02T07:15:31;10.10;78.50
20568;DHT22;10442;49.932;11.592;2024-03-02T07:18:17;10.20;78.50
20568;DHT22;10442;49.932;11.592;2024-03-02T07:20:48;10.20;78.30
20568;DHT22;10442;49.932;11.592;2024-03-02T07:23:17;10.30;78.20
20568;DHT22;10442;49.932;11.592;2024-03-02T07:25:44;10.30;78.10
20568;DHT22;10442;49.932;11.592;2024-03-02T07:28:15;10.30;78.20
20568;DHT22;10442;49.932;11.592;2024-03-02T07:30:42;10.40;78.10
20568;DHT22;10442;49.932;11.592;2024-03-02T07:33:10;10.40;78.00
20568;DHT22;10442;49.932;11.592;2024-03-02T07:35:38;10.40;77.90
20568;DHT22;10442;49.932;11.592;2024-03-02T07:38:06;10.40;78.10
20568;DHT22;10442;49.932;11.592;2024-03-02T07:40:34;10.40;78.00
20568;DHT22;10442;49.932;11.592;2024-03-02T07:43:02;10.40;78.10
20568;DHT22;10442;49.932;11.592;2024-03-02T07:45:29;10.40;78.20
20568;DHT22;10442;49.932;11.592;2024-03-02T07:47:57;10.50;78.10
20568;DHT22;10442;49.932;11.592;2024-03-02T07:50:25;10.50;77.90
20568;DHT22;10442;49.932;11.592;2024-03-02T07:52:55;10.60;77.90
20568;DHT22;10442;49.932;11.592;2024-03-02T07:55:22;10.60;77.80
20568;DHT22;10442;49.932;11.592;2024-03-02T07:57:52;10.60;78.00
20568;DHT22;10442;49.932;11.592;2024-03-02T08:00:21;10.70;78.10
20568;DHT22;10442;49.932;11.592;2024-03-02T08:02:53;10.80;78.20
20568;DHT22;10442;49.932;11.592;2024-03-02T08:05:20;10.90;77.90
20568;DHT22;10442;49.932;11.592;2024-03-02T08:07:49;11.00;77.80
20568;DHT22;10442;49.932;11.592;2024-03-02T08:10:20;11.10;77.70
20568;DHT22;10442;49.932;11.592;2024-03-02T08:12:48;11.20;77.40
20568;DHT22;10442;49.932;11.592;2024-03-02T08:15:16;11.30;77.20
20568;DHT22;10442;49.932;11.592;2024-03-02T08:17:44;11.40;77.10
20568;DHT22;10442;49.932;11.592;2024-03-02T08:20:17;11.50;76.90
20568;DHT22;10442;49.932;11.592;2024-03-02T08:22:46;11.60;76.50
20568;DHT22;10442;49.932;11.592;2024-03-02T08:25:14;11.70;76.10
20568;DHT22;10442;49.932;11.592;2024-03-02T08:27:43;11.80;75.60
20568;DHT22;10442;49.932;11.592;2024-03-02T08:30:11;11.80;75.40
20568;DHT22;10442;49.932;11.592;2024-03-02T08:32:39;11.90;75.20
20568;DHT22;10442;49.932;11.592;2024-03-02T08:35:08;12.00;75.10
20568;DHT22;10442;49.932;11.592;2024-03-02T08:37:39;12.00;75.20
20568;DHT22;10442;49.932;11.592;2024-03-02T08:40:08;12.00;73.90
20568;DHT22;10442;49.932;11.592;2024-03-02T08:42:36;12.10;74.40
20568;DHT22;10442;49.932;11.592;2024-03-02T08:45:04;12.20;75.70
20568;DHT22;10442;49.932;11.592;2024-03-02T08:47:32;12.30;75.10
20568;DHT22;10442;49.932;11.592;2024-03-02T08:50:00;12.40;74.70
20568;DHT22;10442;49.932;11.592;2024-03-02T08:52:29;12.60;73.80
20568;DHT22;10442;49.932;11.592;2024-03-02T08:54:57;12.70;73.30
20568;DHT22;10442;49.932;11.592;2024-03-02T08:57:24;12.80;72.90
20568;DHT22;10442;49.932;11.592;2024-03-02T08:59:52;12.80;71.80
20568;DHT22;10442;49.932;11.592;2024-03-02T09:02:20;12.80;71.90
20568;DHT22;10442;49.932;11.592;2024-03-02T09:04:50;12.70;71.70
20568;DHT22;10442;49.932;11.592;2024-03-02T09:07:18;12.60;71.80
20568;DHT22;10442;49.932;11.592;2024-03-02T09:09:45;12.50;71.90
20568;DHT22;10442;49.932;11.592;2024-03-02T09:12:13;12.40;72.00
20568;DHT22;10442;49.932;11.592;2024-03-02T09:14:41;12.40;72.30
20568;DHT22;10442;49.932;11.592;2024-03-02T09:17:09;12.30;72.50
20568;DHT22;10442;49.932;11.592;2024-03-02T09:19:39;12.30;73.00
20568;DHT22;10442;49.932;11.592;2024-03-02T09:22:10;12.30;73.10
20568;DHT22;10442;49.932;11.592;2024-03-02T09:24:37;12.40;73.30
20568;DHT22;10442;49.932;11.592;2024-03-02T09:27:05;12.40;73.20
20568;DHT22;10442;49.932;11.592;2024-03-02T09:29:33;12.50;73.40
20568;DHT22;10442;49.932;11.592;2024-03-02T09:32:00;12.60;73.10
20568;DHT22;10442;49.932;11.592;2024-03-02T09:34:29;12.60;72.80
20568;DHT22;10442;49.932;11.592;2024-03-02T09:36:58;12.70;72.80
20568;DHT22;10442;49.932;11.592;2024-03-02T09:39:26;12.80;72.10
20568;DHT22;10442;49.932;11.592;2024-03-02T09:41:53;12.90;72.50
20568;DHT22;10442;49.932;11.592;2024-03-02T09:44:21;13.00;72.60
20568;DHT22;10442;49.932;11.592;2024-03-02T09:46:49;13.10;72.10
20568;DHT22;10442;49.932;11.592;2024-03-02T09:49:17;13.30;71.80
20568;DHT22;10442;49.932;11.592;2024-03-02T09:51:47;13.40;71.90
20568;DHT22;10442;49.932;11.592;2024-03-02T09:54:16;13.60;71.60
20568;DHT22;10442;49.932;11.592;2024-03-02T09:56:50;13.70;71.40
20568;DHT22;10442;49.932;11.592;2024-03-02T09:59:18;13.80;70.80
20568;DHT22;10442;49.932;11.592;2024-03-02T10:01:59;13.90;70.70
20568;DHT22;10442;49.932;11.592;2024-03-02T10:04:29;14.00;70.00
20568;DHT22;10442;49.932;11.592;2024-03-02T10:07:25;14.00;69.70
20568;DHT22;10442;49.932;11.592;2024-03-02T10:09:52;14.10;69.70
20568;DHT22;10442;49.932;11.592;2024-03-02T10:12:20;14.10;69.80
20568;DHT22;10442;49.932;11.592;2024-03-02T10:14:48;14.10;68.60
20568;DHT22;10442;49.932;11.592;2024-03-02T10:17:20;14.20;68.90
20568;DHT22;10442;49.932;11.592;2024-03-02T10:19:48;14.20;68.40
20568;DHT22;10442;49.932;11.592;2024-03-02T10:22:16;14.30;68.50
20568;DHT22;10442;49.932;11.592;2024-03-02T10:24:44;14.30;68.70
20568;DHT22;10442;49.932;11.592;2024-03-02T10:27:17;14.30;68.70
20568;DHT22;10442;49.932;11.592;2024-03-02T10:29:48;14.30;68.30
20568;DHT22;10442;49.932;11.592;2024-03-02T10:32:16;14.40;68.00
20568;DHT22;10442;49.932;11.592;2024-03-02T10:34:46;14.40;67.80
20568;DHT22;10442;49.932;11.592;2024-03-02T10:37:15;14.50;66.90
20568;DHT22;10442;49.932;11.592;2024-03-02T10:39:46;14.40;66.60
20568;DHT22;10442;49.932;11.592;2024-03-02T10:42:14;14.50;66.50
20568;DHT22;10442;49.932;11.592;2024-03-02T10:44:42;14.50;66.60
20568;DHT22;10442;49.932;11.592;2024-03-02T10:47:12;14.50;66.80
20568;DHT22;10442;49.932;11.592;2024-03-02T10:49:42;14.50;66.50
20568;DHT22;10442;49.932;11.592;2024-03-02T10:52:10;14.60;66.20
20568;DHT22;10442;49.932;11.592;2024-03-02T10:54:38;14.60;65.40
20568;DHT22;10442;49.932;11.592;2024-03-02T10:57:07;14.50;65.40
20568;DHT22;10442;49.932;11.592;2024-03-02T10:59:51;14.40;65.30
20568;DHT22;10442;49.932;11.592;2024-03-02T11:02:21;14.30;65.90
20568;DHT22;10442;49.932;11.592;2024-03-02T11:04:54;14.30;66.80
20568;DHT22;10442;49.932;11.592;2024-03-02T11:07:23;14.30;66.30
20568;DHT22;10442;49.932;11.592;2024-03-02T11:09:57;14.40;66.80
20568;DHT22;10442;49.932;11.592;2024-03-02T11:12:32;14.40;66.20
20568;DHT22;10442;49.932;11.592;2024-03-02T11:15:09;14.40;66.20
20568;DHT22;10442;49.932;11.592;2024-03-02T11:17:39;14.40;65.70
20568;DHT22;10442;49.932;11.592;2024-03-02T11:20:08;14.30;65.50
20568;DHT22;10442;49.932;11.592;2024-03-02T11:22:36;14.20;65.50
20568;DHT22;10442;49.932;11.592;2024-03-02T11:25:05;14.20;65.20
20568;DHT22;10442;49.932;11.592;2024-03-02T11:33:02;13.90;65.70
20568;DHT22;10442;49.932;11.592;2024-03-02T11:35:44;13.80;65.40
20568;DHT22;10442;49.932;11.592;2024-03-02T11:38:15;13.70;65.30
20568;DHT22;10442;49.932;11.592;2024-03-02T11:40:42;13.60;66.00
20568;DHT22;10442;49.932;11.592;2024-03-02T11:43:11;13.50;66.10
20568;DHT22;10442;49.932;11.592;2024-03-02T11:45:42;13.50;66.20
20568;DHT22;10442;49.932;11.592;2024-03-02T11:48:14;13.50;66.50
20568;DHT22;10442;49.932;11.592;2024-03-02T11:50:46;13.50;66.90
20568;DHT22;10442;49.932;11.592;2024-03-02T11:53:14;13.40;66.90
20568;DHT22;10442;49.932;11.592;2024-03-02T11:55:42;13.40;67.00
20568;DHT22;10442;49.932;11.592;2024-03-02T11:58:16;13.40;67.10
20568;DHT22;10442;49.932;11.592;2024-03-02T12:00:45;13.40;67.10
20568;DHT22;10442;49.932;11.592;2024-03-02T12:03:15;13.50;67.70
20568;DHT22;10442;49.932;11.592;2024-03-02T12:05:42;13.50;67.20
20568;DHT22;10442;49.932;11.592;2024-03-02T12:08:11;13.50;67.50
20568;DHT22;10442;49.932;11.592;2024-03-02T12:10:42;13.60;67.20
20568;DHT22;10442;49.932;11.592;2024-03-02T12:13:11;13.60;67.20
20568;DHT22;10442;49.932;11.592;2024-03-02T12:15:39;13.60;67.10
20568;DHT22;10442;49.932;11.592;2024-03-02T12:18:09;13.60;67.10
20568;DHT22;10442;49.932;11.592;2024-03-02T12:20:37;13.60;66.90
20568;DHT22;10442;49.932;11.592;2024-03-02T12:23:04;13.60;67.00
20568;DHT22;10442;49.932;11.592;2024-03-02T12:25:33;13.50;66.80
20568;DHT22;10442;49.932;11.592;2024-03-02T12:28:02;13.50;66.90
20568;DHT22;10442;49.932;11.592;2024-03-02T12:30:31;13.50;68.00
20568;DHT22;10442;49.932;11.592;2024-03-02T12:33:04;13.50;67.70
20568;DHT22;10442;49.932;11.592;2024-03-02T12:35:32;13.50;67.20
20568;DHT22;10442;49.932;11.592;2024-03-02T12:38:00;13.50;67.40
20568;DHT22;10442;49.932;11.592;2024-03-02T12:40:27;13.50;67.70
20568;DHT22;10442;49.932;11.592;2024-03-02T12:42:54;13.50;67.30
20568;DHT22;10442;49.932;11.592;2024-03-02T12:45:22;13.50;67.90
20568;DHT22;10442;49.932;11.592;2024-03-02T12:47:53;13.50;67.40
20568;DHT22;10442;49.932;11.592;2024-03-02T12:50:21;13.40;67.40
20568;DHT22;10442;49.932;11.592;2024-03-02T12:52:52;13.40;67.70
20568;DHT22;10442;49.932;11.592;2024-03-02T12:55:21;13.40;67.60
20568;DHT22;10442;49.932;11.592;2024-03-02T12:57:51;13.40;67.70
20568;DHT22;10442;49.932;11.592;2024-03-02T13:00:20;13.40;67.90
20568;DHT22;10442;49.932;11.592;2024-03-02T13:02:50;13.40;67.90
20568;DHT22;10442;49.932;11.592;2024-03-02T13:05:19;13.40;67.70
20568;DHT22;10442;49.932;11.592;2024-03-02T13:07:48;13.40;67.50
20568;DHT22;10442;49.932;11.592;2024-03-02T13:10:16;13.30;67.50
20568;DHT22;10442;49.932;11.592;2024-03-02T13:12:45;13.30;67.50
20568;DHT22;10442;49.932;11.592;2024-03-02T13:15:15;13.30;68.20
20568;DHT22;10442;49.932;11.592;2024-03-02T13:17:45;13.30;67.60
20568;DHT22;10442;49.932;11.592;2024-03-02T13:20:14;13.40;67.30
20568;DHT22;10442;49.932;11.592;2024-03-02T13:22:42;13.40;67.10
20568;DHT22;10442;49.932;11.592;2024-03-02T13:25:10;13.40;67.10
20568;DHT22;10442;49.932;11.592;2024-03-02T13:27:39;13.40;67.30
20568;DHT22;10442;49.932;11.592;2024-03-02T13:30:08;13.40;67.70
20568;DHT22;10442;49.932;11.592;2024-03-02T13:32:37;13.40;68.60
20568;DHT22;10442;49.932;11.592;2024-03-02T13:35:05;13.40;67.60
20568;DHT22;10442;49.932;11.592;2024-03-02T13:37:33;13.40;67.50
20568;DHT22;10442;49.932;11.592;2024-03-02T13:40:01;13.40;66.80
20568;DHT22;10442;49.932;11.592;2024-03-02T13:42:30;13.40;66.70
20568;DHT22;10442;49.932;11.592;2024-03-02T13:44:57;13.40;66.90
20568;DHT22;10442;49.932;11.592;2024-03-02T13:47:26;13.30;67.40
20568;DHT22;10442;49.932;11.592;2024-03-02T13:49:54;13.30;67.60
20568;DHT22;10442;49.932;11.592;2024-03-02T13:52:22;13.30;67.30
20568;DHT22;10442;49.932;11.592;2024-03-02T13:54:49;13.30;67.30
20568;DHT22;10442;49.932;11.592;2024-03-02T13:57:19;13.30;67.30
20568;DHT22;10442;49.932;11.592;2024-03-02T13:59:51;13.30;66.60
20568;DHT22;10442;49.932;11.592;2024-03-02T14:02:20;13.30;67.00
20568;DHT22;10442;49.932;11.592;2024-03-02T14:04:48;13.30;66.40
20568;DHT22;10442;49.932;11.592;2024-03-02T14:07:18;13.20;66.40
20568;DHT22;10442;49.932;11.592;2024-03-02T14:09:46;13.10;66.50
20568;DHT22;10442;49.932;11.592;2024-03-02T14:12:14;13.10;66.70
20568;DHT22;10442;49.932;11.592;2024-03-02T14:14:42;13.00;67.00
20568;DHT22;10442;49.932;11.592;2024-03-02T14:17:09;12.90;67.10
20568;DHT22;10442;49.932;11.592;2024-03-02T14:19:41;12.90;67.60
20568;DHT22;10442;49.932;11.592;2024-03-02T14:22:09;12.90;67.60
20568;DHT22;10442;49.932;11.592;2024-03-02T14:24:37;12.90;67.90
20568;DHT22;10442;49.932;11.592;2024-03-02T14:27:05;12.90;68.40
20568;DHT22;10442;49.932;11.592;2024-03-02T14:29:51;12.90;68.80
20568;DHT22;10442;49.932;11.592;2024-03-02T14:32:21;13.00;68.20
20568;DHT22;10442;49.932;11.592;2024-03-02T14:34:49;12.90;67.90
20568;DHT22;10442;49.932;11.592;2024-03-02T14:37:16;13.00;67.60
20568;DHT22;10442;49.932;11.592;2024-03-02T14:39:44;13.00;67.70
20568;DHT22;10442;49.932;11.592;2024-03-02T14:42:12;13.00;67.70
20568;DHT22;10442;49.932;11.592;2024-03-02T14:44:40;12.90;67.60
20568;DHT22;10442;49.932;11.592;2024-03-02T14:47:08;12.90;68.10
20568;DHT22;10442;49.932;11.592;2024-03-02T14:49:36;12.90;68.20
20568;DHT22;10442;49.932;11.592;2024-03-02T14:52:09;12.80;68.20
20568;DHT22;10442;49.932;11.592;2024-03-02T14:54:36;12.80;68.60
20568;DHT22;10442;49.932;11.592;2024-03-02T14:57:05;12.80;68.30
20568;DHT22;10442;49.932;11.592;2024-03-02T14:59:33;12.90;68.40
20568;DHT22;10442;49.932;11.592;2024-03-02T15:02:01;12.90;68.50
20568;DHT22;10442;49.932;11.592;2024-03-02T15:04:29;12.90;68.30
20568;DHT22;10442;49.932;11.592;2024-03-02T15:06:57;12.90;68.50
20568;DHT22;10442;49.932;11.592;2024-03-02T15:09:25;12.90;68.40
20568;DHT22;10442;49.932;11.592;2024-03-02T15:11:53;12.90;68.30
20568;DHT22;10442;49.932;11.592;2024-03-02T15:14:21;12.90;68.20
20568;DHT22;10442;49.932;11.592;2024-03-02T15:16:49;12.90;68.10
20568;DHT22;10442;49.932;11.592;2024-03-02T15:19:16;12.90;68.20
20568;DHT22;10442;49.932;11.592;2024-03-02T15:21:44;12.90;68.30
20568;DHT22;10442;49.932;11.592;2024-03-02T15:24:12;12.90;68.30
20568;DHT22;10442;49.932;11.592;2024-03-02T15:26:39;13.00;68.30
20568;DHT22;10442;49.932;11.592;2024-03-02T15:29:07;13.00;68.50
20568;DHT22;10442;49.932;11.592;2024-03-02T15:31:34;12.90;68.00
20568;DHT22;10442;49.932;11.592;2024-03-02T15:34:03;13.00;68.00
20568;DHT22;10442;49.932;11.592;2024-03-02T15:36:30;13.00;67.90
20568;DHT22;10442;49.932;11.592;2024-03-02T15:38:58;13.00;68.00
20568;DHT22;10442;49.932;11.592;2024-03-02T15:41:26;13.00;68.10
20568;DHT22;10442;49.932;11.592;2024-03-02T15:43:55;13.00;68.10